Time;durP1;ratioP1;P1;durP2;ratioP2;P2;SDS_P1;SDS_P2;PMS_P1;PMS_P2;Temp;Humidity;BMP_temperature;BMP_pressure;BME280_temperature;BME280_humidity;BME280_pressure;Samples;Min_cycle;Max_cycle;Signal;HPM_P1;HPM_P2
2023/01/30 00:01:42;;;;;;;20.17;14.10;;;0.40;99.90;;;;;;4973333;28;20510;-87
2023/01/30 00:04:13;;;;;;;17.45;12.10;;;0.20;99.90;;;;;;4958605;29;20219;-88
2023/01/30 00:06:43;;;;;;;18.13;13.85;;;0.10;99.90;;;;;;4959565;29;20549;-86
2023/01/30 00:09:16;;;;;;;20.08;13.80;;;0.00;99.90;;;;;;4965338;29;20202;-85
2023/01/30 00:11:43;;;;;;;19.70;12.90;;;0.00;99.90;;;;;;4980690;28;20225;-86
2023/01/30 00:14:10;;;;;;;20.55;14.43;;;-0.10;99.90;;;;;;4973714;28;20206;-86
2023/01/30 00:16:37;;;;;;;23.35;13.98;;;-0.10;99.90;;;;;;4972602;28;20215;-84
2023/01/30 00:19:05;;;;;;;24.65;13.98;;;-0.10;99.90;;;;;;4974433;28;20241;-86
2023/01/30 00:21:32;;;;;;;20.63;12.40;;;-0.20;99.90;;;;;;4972459;28;20513;-87
2023/01/30 00:23:59;;;;;;;18.95;12.65;;;-0.20;99.90;;;;;;4972919;28;20487;-87
2023/01/30 00:26:29;;;;;;;17.85;12.60;;;-0.30;99.90;;;;;;4973124;28;20418;-84
2023/01/30 00:28:56;;;;;;;21.70;13.85;;;-0.40;99.90;;;;;;4975774;28;20254;-87
2023/01/30 00:31:22;;;;;;;20.10;12.30;;;-0.30;99.90;;;;;;4966876;28;20210;-86
2023/01/30 00:33:49;;;;;;;16.15;12.10;;;-0.30;99.90;;;;;;4972601;28;20211;-84
2023/01/30 00:36:16;;;;;;;21.30;13.43;;;-0.40;99.90;;;;;;4966038;29;20211;-85
2023/01/30 00:38:43;;;;;;;19.98;12.68;;;-0.50;99.90;;;;;;4966973;28;20214;-84
2023/01/30 00:41:12;;;;;;;19.58;12.20;;;-0.50;99.90;;;;;;4976776;28;20273;-84
2023/01/30 00:49:18;;;;;;;17.00;12.68;;;-0.50;99.90;;;;;;4980511;28;20206;-86
2023/01/30 00:51:48;;;;;;;16.63;12.32;;;-0.60;99.90;;;;;;4978762;28;20506;-88
2023/01/30 00:54:14;;;;;;;20.02;13.32;;;-0.50;99.90;;;;;;4973555;28;20215;-85
2023/01/30 00:56:41;;;;;;;17.33;12.77;;;-0.50;99.90;;;;;;4977650;28;20278;-85
2023/01/30 00:59:08;;;;;;;17.52;12.90;;;-0.50;99.90;;;;;;4973839;28;20218;-84
2023/01/30 01:01:36;;;;;;;21.50;13.80;;;-0.50;99.90;;;;;;4966747;28;20203;-87
2023/01/30 01:04:05;;;;;;;22.05;13.48;;;-0.40;99.90;;;;;;4968818;28;20261;-88
2023/01/30 01:06:32;;;;;;;17.50;12.30;;;-0.40;99.90;;;;;;4962121;28;20216;-86
2023/01/30 01:08:59;;;;;;;19.88;12.10;;;-0.40;99.90;;;;;;4959753;28;20233;-85
2023/01/30 01:11:26;;;;;;;18.98;14.75;;;-0.50;99.90;;;;;;4967467;28;20211;-89
2023/01/30 01:13:58;;;;;;;17.50;12.10;;;-0.30;99.90;;;;;;4973156;28;20723;-87
2023/01/30 01:16:26;;;;;;;18.48;12.77;;;-0.40;99.90;;;;;;4968600;28;20214;-88
2023/01/30 01:18:54;;;;;;;18.50;13.30;;;-0.50;99.90;;;;;;4965269;29;20546;-87
2023/01/30 01:21:21;;;;;;;19.80;13.10;;;-0.60;99.90;;;;;;4973391;28;20211;-87
2023/01/30 01:23:51;;;;;;;21.17;12.50;;;-0.40;99.90;;;;;;4960816;28;20556;-87
2023/01/30 01:26:18;;;;;;;19.30;13.10;;;-0.30;99.90;;;;;;4969713;28;20454;-87
2023/01/30 01:28:46;;;;;;;17.20;12.60;;;-0.50;99.90;;;;;;4969148;28;20219;-90
2023/01/30 01:31:15;;;;;;;21.70;14.18;;;-0.40;99.90;;;;;;4973611;28;20202;-86
2023/01/30 01:33:42;;;;;;;17.30;13.07;;;-0.40;99.90;;;;;;4968313;29;20202;-85
2023/01/30 01:36:09;;;;;;;22.40;14.20;;;-0.30;99.90;;;;;;4961466;29;20211;-85
2023/01/30 01:38:41;;;;;;;19.15;11.40;;;-0.30;99.90;;;;;;4973477;28;20207;-86
2023/01/30 01:41:10;;;;;;;18.45;13.20;;;-0.10;99.90;;;;;;4971935;28;20207;-85
2023/01/30 01:44:03;;;;;;;19.55;13.45;;;0.10;99.90;;;;;;4976741;28;20211;-86
2023/01/30 01:46:45;;;;;;;21.08;14.48;;;0.20;99.90;;;;;;4981489;28;20518;-86
2023/01/30 01:49:26;;;;;;;20.65;14.82;;;0.40;99.90;;;;;;4969645;28;20206;-85
2023/01/30 01:52:14;;;;;;;19.05;12.82;;;0.50;99.90;;;;;;4966620;29;20209;-87
2023/01/30 01:54:52;;;;;;;20.70;14.95;;;0.50;99.90;;;;;;4974162;28;20263;-87
2023/01/30 01:57:32;;;;;;;18.92;13.48;;;0.40;99.90;;;;;;4975934;28;20210;-87
2023/01/30 02:00:17;;;;;;;23.88;13.93;;;0.50;99.90;;;;;;4955702;28;20212;-87
2023/01/30 02:05:16;;;;;;;16.63;12.27;;;0.60;99.90;;;;;;5122918;23;20469;-89
2023/01/30 02:07:49;;;;;;;21.90;13.90;;;0.60;99.90;;;;;;4976386;28;20198;-88
2023/01/30 02:10:24;;;;;;;15.70;12.38;;;0.60;99.90;;;;;;4987836;28;20221;-87
2023/01/30 02:12:51;;;;;;;17.27;12.73;;;0.60;99.90;;;;;;4981394;28;20273;-88
2023/01/30 02:15:19;;;;;;;21.00;12.57;;;0.50;99.90;;;;;;4979996;28;20221;-87
2023/01/30 02:17:47;;;;;;;17.40;13.98;;;0.60;99.90;;;;;;4968561;28;20206;-91
2023/01/30 02:20:30;;;;;;;20.38;13.45;;;0.70;99.90;;;;;;4985897;28;20251;-88
2023/01/30 02:23:48;;;;;;;18.00;13.35;;;0.80;99.90;;;;;;4964159;28;20187;-88
2023/01/30 02:26:33;;;;;;;16.23;12.77;;;1.00;99.90;;;;;;4978756;28;20203;-87
2023/01/30 02:29:51;;;;;;;17.67;12.00;;;1.10;99.90;;;;;;4978003;28;20207;-87
2023/01/30 02:32:31;;;;;;;19.40;13.40;;;0.70;99.90;;;;;;4970866;28;20215;-86
2023/01/30 02:35:26;;;;;;;19.27;12.63;;;0.70;99.90;;;;;;4968574;28;20175;-87
2023/01/30 02:38:23;;;;;;;14.88;11.43;;;0.60;99.90;;;;;;4978976;28;20225;-87
2023/01/30 02:41:21;;;;;;;19.92;14.32;;;0.60;99.90;;;;;;4974053;28;20213;-88
2023/01/30 02:44:10;;;;;;;17.15;12.07;;;0.60;99.90;;;;;;4977011;28;20195;-89
2023/01/30 02:46:55;;;;;;;15.38;12.43;;;0.50;99.90;;;;;;4991019;28;20233;-87
2023/01/30 02:52:10;;;;;;;20.52;11.90;;;0.70;99.90;;;;;;4978120;28;20254;-87
2023/01/30 02:54:37;;;;;;;18.00;12.45;;;0.90;99.90;;;;;;4979132;28;20198;-88
2023/01/30 02:57:20;;;;;;;16.15;11.70;;;0.80;99.90;;;;;;4979193;28;20198;-85
2023/01/30 02:59:52;;;;;;;17.42;11.25;;;0.80;99.90;;;;;;4982023;28;20258;-86
2023/01/30 03:02:35;;;;;;;18.98;10.70;;;0.70;99.90;;;;;;4986585;28;20210;-84
2023/01/30 03:05:20;;;;;;;16.90;11.00;;;0.60;99.90;;;;;;4975399;29;20232;-83
2023/01/30 03:08:02;;;;;;;14.27;10.15;;;0.50;99.90;;;;;;4979206;28;20227;-85
2023/01/30 03:10:39;;;;;;;16.80;10.75;;;0.50;99.90;;;;;;4966502;28;20194;-87
2023/01/30 03:13:18;;;;;;;19.13;11.80;;;0.60;99.90;;;;;;4978775;28;20183;-85
2023/01/30 03:16:11;;;;;;;15.32;10.63;;;0.60;99.90;;;;;;4988730;28;20202;-86
2023/01/30 03:18:43;;;;;;;14.73;10.77;;;0.70;99.90;;;;;;4987242;28;20202;-86
2023/01/30 03:21:11;;;;;;;14.18;10.77;;;0.80;99.90;;;;;;4954803;28;20558;-86
2023/01/30 03:23:39;;;;;;;15.65;9.77;;;0.90;99.90;;;;;;4968813;29;20617;-86
2023/01/30 03:26:14;;;;;;;15.13;11.73;;;1.00;99.90;;;;;;4980095;28;20242;-87
2023/01/30 03:28:41;;;;;;;13.10;10.00;;;1.00;99.90;;;;;;4993972;28;20178;-87
2023/01/30 03:31:12;;;;;;;13.65;10.50;;;0.90;99.90;;;;;;4981036;28;20207;-86
2023/01/30 03:33:39;;;;;;;13.70;10.25;;;0.80;99.90;;;;;;4979281;28;20207;-85
2023/01/30 03:36:06;;;;;;;16.45;10.93;;;0.70;99.90;;;;;;4979098;28;20202;-85
2023/01/30 03:38:34;;;;;;;17.40;11.15;;;0.80;99.90;;;;;;4978018;28;20218;-85
2023/01/30 03:41:03;;;;;;;13.43;10.00;;;0.70;99.90;;;;;;4978594;28;20191;-87
2023/01/30 03:43:33;;;;;;;13.43;9.63;;;0.90;99.90;;;;;;4979492;28;20210;-85
2023/01/30 03:46:01;;;;;;;13.63;9.38;;;0.80;99.90;;;;;;4976609;28;20219;-87
2023/01/30 03:48:28;;;;;;;14.10;9.90;;;0.70;99.90;;;;;;4978847;28;20268;-87
2023/01/30 03:50:55;;;;;;;14.02;10.10;;;0.80;99.90;;;;;;4978455;28;20223;-84
2023/01/30 03:53:22;;;;;;;11.50;9.20;;;0.60;99.90;;;;;;4977757;28;20203;-88
2023/01/30 03:55:49;;;;;;;13.63;10.82;;;0.60;99.90;;;;;;4974070;28;20222;-84
2023/01/30 03:58:16;;;;;;;12.77;8.85;;;0.60;99.90;;;;;;4969422;29;20213;-86
2023/01/30 04:00:43;;;;;;;11.27;8.80;;;0.60;99.90;;;;;;4974791;28;20198;-84
2023/01/30 04:03:10;;;;;;;12.93;10.63;;;0.70;99.90;;;;;;4971589;28;20211;-83
2023/01/30 04:05:37;;;;;;;14.50;10.45;;;0.70;99.90;;;;;;4966602;28;20237;-85
2023/01/30 04:08:05;;;;;;;15.02;10.00;;;0.80;99.90;;;;;;4964812;29;20217;-86
2023/01/30 04:10:32;;;;;;;11.95;9.73;;;0.70;99.90;;;;;;4965093;28;20210;-84
2023/01/30 04:12:59;;;;;;;13.20;10.02;;;0.70;99.90;;;;;;4968581;28;20211;-87
2023/01/30 04:15:26;;;;;;;14.88;10.05;;;0.80;99.90;;;;;;4963488;29;20207;-87
2023/01/30 04:17:53;;;;;;;13.93;10.77;;;0.90;99.90;;;;;;4962603;28;20210;-86
2023/01/30 04:20:20;;;;;;;13.63;9.70;;;0.90;99.90;;;;;;4969935;28;20202;-85
2023/01/30 04:22:47;;;;;;;15.70;9.82;;;0.90;99.90;;;;;;4968107;28;20207;-87
2023/01/30 04:25:17;;;;;;;12.13;8.73;;;0.90;99.90;;;;;;4976874;28;20221;-84
2023/01/30 04:27:45;;;;;;;14.73;9.85;;;0.90;99.90;;;;;;4965299;28;20210;-86
2023/01/30 04:30:12;;;;;;;14.18;10.60;;;0.80;99.90;;;;;;4970971;28;20395;-87
2023/01/30 04:32:39;;;;;;;14.82;10.10;;;0.80;99.90;;;;;;4964656;28;20215;-87
2023/01/30 04:35:06;;;;;;;18.05;11.40;;;0.70;99.90;;;;;;4966600;28;20203;-87
2023/01/30 04:37:33;;;;;;;12.75;9.88;;;0.80;99.90;;;;;;4973285;28;20565;-86
2023/01/30 04:40:00;;;;;;;20.02;10.55;;;0.90;99.90;;;;;;4953655;29;20242;-86
2023/01/30 04:42:27;;;;;;;12.07;10.35;;;0.80;99.90;;;;;;4958306;28;20208;-89
2023/01/30 04:44:55;;;;;;;12.45;9.55;;;0.80;99.90;;;;;;4970902;28;20250;-85
2023/01/30 04:47:22;;;;;;;12.18;9.57;;;0.80;99.90;;;;;;4978793;28;20222;-88
2023/01/30 04:49:51;;;;;;;13.68;10.15;;;0.80;99.90;;;;;;4970524;28;20845;-89
2023/01/30 04:52:18;;;;;;;14.63;11.00;;;0.80;99.90;;;;;;4975235;28;20287;-89
2023/01/30 04:54:46;;;;;;;17.20;10.02;;;0.80;99.90;;;;;;4976215;28;20195;-87
2023/01/30 04:57:13;;;;;;;13.10;9.80;;;0.80;99.90;;;;;;4970799;28;20211;-88
2023/01/30 04:59:40;;;;;;;12.38;9.30;;;0.90;99.90;;;;;;4968583;28;20223;-87
2023/01/30 05:02:07;;;;;;;14.85;11.38;;;0.90;99.90;;;;;;4966944;28;20202;-86
2023/01/30 05:04:33;;;;;;;12.70;10.57;;;0.90;99.90;;;;;;4968145;28;20226;-87
2023/01/30 05:07:01;;;;;;;13.25;9.10;;;0.90;99.90;;;;;;4956765;28;20223;-86
2023/01/30 05:09:28;;;;;;;16.10;11.45;;;0.80;99.90;;;;;;4968358;28;20495;-85
2023/01/30 05:11:55;;;;;;;18.23;10.38;;;0.90;99.90;;;;;;4965398;28;20207;-87
2023/01/30 05:14:22;;;;;;;14.43;10.38;;;0.90;99.90;;;;;;4969901;28;20656;-86
2023/01/30 05:16:51;;;;;;;17.30;12.38;;;1.00;99.90;;;;;;4965137;29;20202;-87
2023/01/30 05:19:19;;;;;;;16.27;11.35;;;1.00;99.90;;;;;;4963072;29;20274;-85
2023/01/30 05:21:46;;;;;;;22.00;12.68;;;0.90;99.90;;;;;;4965252;28;20218;-85
2023/01/30 05:24:13;;;;;;;21.73;10.15;;;0.90;99.90;;;;;;4975620;28;20214;-86
2023/01/30 05:26:43;;;;;;;15.90;10.70;;;0.90;99.90;;;;;;4965732;28;20483;-91
2023/01/30 05:29:10;;;;;;;13.98;12.10;;;0.90;99.90;;;;;;4975366;28;20203;-86
2023/01/30 05:31:37;;;;;;;14.15;11.00;;;0.90;99.90;;;;;;4963228;28;20211;-87
2023/01/30 05:34:05;;;;;;;17.88;10.93;;;0.80;99.90;;;;;;4979614;28;20277;-86
2023/01/30 05:36:33;;;;;;;13.45;9.82;;;0.90;99.90;;;;;;4971853;28;20206;-86
2023/01/30 05:39:00;;;;;;;23.50;13.43;;;0.70;99.90;;;;;;4962005;28;20211;-85
2023/01/30 05:41:27;;;;;;;13.88;10.68;;;0.60;99.90;;;;;;4962064;29;20246;-85
2023/01/30 05:43:54;;;;;;;15.70;9.82;;;0.40;99.90;;;;;;4967396;28;20249;-85
2023/01/30 05:46:21;;;;;;;14.52;10.00;;;0.50;99.90;;;;;;4963683;28;20233;-89
2023/01/30 05:48:48;;;;;;;15.57;9.82;;;0.60;99.90;;;;;;4962794;28;20211;-87
2023/01/30 05:51:20;;;;;;;18.20;12.25;;;0.80;99.90;;;;;;4963277;29;20411;-85
2023/01/30 05:53:48;;;;;;;16.50;11.57;;;0.70;99.90;;;;;;4956555;28;20213;-86
2023/01/30 05:56:15;;;;;;;12.05;9.85;;;1.00;99.90;;;;;;4974374;28;20209;-85
2023/01/30 05:58:43;;;;;;;12.90;9.95;;;1.00;99.90;;;;;;4974283;28;20214;-89
2023/01/30 06:01:11;;;;;;;14.27;9.95;;;1.00;99.90;;;;;;4971630;28;20278;-88
2023/01/30 06:03:38;;;;;;;18.33;11.85;;;0.90;99.90;;;;;;4965599;28;20221;-86
2023/01/30 06:06:06;;;;;;;16.85;12.15;;;1.00;99.90;;;;;;4979536;28;20236;-87
2023/01/30 06:08:33;;;;;;;17.08;10.18;;;0.90;99.90;;;;;;4970499;28;20215;-84
2023/01/30 06:11:06;;;;;;;15.23;10.75;;;1.10;99.90;;;;;;4965054;28;20271;-87
2023/01/30 06:13:34;;;;;;;21.45;10.43;;;0.80;99.90;;;;;;4971984;28;20206;-87
2023/01/30 06:16:01;;;;;;;15.07;10.13;;;0.90;99.90;;;;;;4973333;28;20215;-86
2023/01/30 06:18:29;;;;;;;15.50;10.60;;;1.00;99.90;;;;;;4969794;28;20258;-88
2023/01/30 06:20:57;;;;;;;14.07;10.02;;;1.00;99.90;;;;;;4960812;28;20388;-88
2023/01/30 06:23:27;;;;;;;11.82;9.75;;;1.10;99.90;;;;;;4964458;28;20213;-86
2023/01/30 06:25:54;;;;;;;13.25;10.13;;;1.30;99.90;;;;;;4964302;28;20419;-86
2023/01/30 06:28:23;;;;;;;13.95;10.30;;;1.20;99.90;;;;;;4971461;28;20241;-88
2023/01/30 06:30:51;;;;;;;11.77;8.60;;;1.10;99.90;;;;;;4970376;28;20194;-82
2023/01/30 06:33:19;;;;;;;15.13;10.18;;;1.10;99.90;;;;;;5006024;23;20310;-85
2023/01/30 06:35:49;;;;;;;12.65;9.77;;;1.20;99.90;;;;;;4950157;29;20242;-86
2023/01/30 06:38:19;;;;;;;15.60;10.77;;;1.30;99.90;;;;;;4947662;29;20199;-89
2023/01/30 06:40:48;;;;;;;15.70;8.27;;;1.20;99.90;;;;;;4952625;29;20275;-86
2023/01/30 06:43:16;;;;;;;13.55;9.60;;;1.20;99.90;;;;;;4946689;28;20192;-87
2023/01/30 06:45:44;;;;;;;14.10;9.30;;;1.30;99.90;;;;;;4958226;29;20240;-86
2023/01/30 06:48:10;;;;;;;25.77;10.65;;;1.20;99.90;;;;;;4949204;29;20237;-87
2023/01/30 06:50:38;;;;;;;15.15;9.55;;;1.30;99.90;;;;;;4956684;29;20402;-86
2023/01/30 06:53:06;;;;;;;12.77;9.70;;;1.30;99.90;;;;;;4954062;29;20215;-88
2023/01/30 06:55:34;;;;;;;15.00;10.85;;;1.20;99.90;;;;;;4950719;28;20201;-87
2023/01/30 06:58:08;;;;;;;15.52;11.00;;;1.40;99.90;;;;;;4945970;29;20267;-84
2023/01/30 07:00:38;;;;;;;15.23;10.95;;;1.40;99.90;;;;;;4946168;29;20446;-89
2023/01/30 07:03:10;;;;;;;12.75;10.10;;;1.40;99.90;;;;;;4947423;28;20421;-90
2023/01/30 07:05:39;;;;;;;13.95;10.85;;;1.40;99.90;;;;;;4942010;29;20231;-86
2023/01/30 07:08:07;;;;;;;16.05;12.00;;;1.40;99.90;;;;;;4938296;29;20208;-86
2023/01/30 07:10:43;;;;;;;14.05;10.80;;;1.40;99.90;;;;;;4941833;29;20254;-87
2023/01/30 07:13:11;;;;;;;18.20;11.95;;;1.40;99.90;;;;;;4943763;29;20214;-88
2023/01/30 07:15:39;;;;;;;13.10;11.45;;;1.50;99.90;;;;;;4959846;29;20212;-89
2023/01/30 07:18:06;;;;;;;14.77;11.18;;;1.50;99.90;;;;;;4958613;29;20228;-88
2023/01/30 07:20:33;;;;;;;15.05;9.48;;;1.50;99.90;;;;;;4948538;29;20392;-89
2023/01/30 07:23:00;;;;;;;16.88;11.52;;;1.50;99.90;;;;;;4954914;29;20192;-90
2023/01/30 07:25:29;;;;;;;17.13;10.95;;;1.50;99.90;;;;;;4932758;29;20273;-87
2023/01/30 07:27:59;;;;;;;16.20;11.52;;;1.50;99.90;;;;;;4945361;29;20211;-90
2023/01/30 07:30:28;;;;;;;11.15;9.60;;;1.60;99.90;;;;;;4948776;28;20212;-86
2023/01/30 07:32:57;;;;;;;18.45;11.13;;;1.60;99.90;;;;;;4945752;29;20212;-89
2023/01/30 07:35:26;;;;;;;13.65;9.93;;;1.60;99.90;;;;;;4950198;29;20280;-89
2023/01/30 07:37:53;;;;;;;18.95;11.73;;;1.60;99.90;;;;;;4948108;28;20212;-88
2023/01/30 07:40:20;;;;;;;15.52;10.38;;;1.60;99.90;;;;;;4949180;29;20226;-89
2023/01/30 07:42:57;;;;;;;13.40;9.95;;;1.40;99.90;;;;;;4948779;29;20215;-87
2023/01/30 07:45:29;;;;;;;17.40;13.10;;;1.50;99.90;;;;;;4950493;29;20254;-89
2023/01/30 07:47:56;;;;;;;20.02;11.68;;;1.20;99.90;;;;;;4947924;29;20196;-88
2023/01/30 07:50:24;;;;;;;15.52;11.45;;;1.20;99.90;;;;;;4936914;29;20283;-87
2023/01/30 07:52:51;;;;;;;16.25;11.95;;;1.10;99.90;;;;;;4934345;29;20211;-87
2023/01/30 07:55:19;;;;;;;16.15;13.35;;;1.10;99.90;;;;;;4925299;29;20207;-89
2023/01/30 07:57:46;;;;;;;20.60;14.25;;;1.10;99.90;;;;;;4942798;29;20267;-88
2023/01/30 08:00:14;;;;;;;17.63;12.63;;;1.20;99.90;;;;;;4942703;29;20212;-85
2023/01/30 08:02:41;;;;;;;15.98;12.02;;;1.20;99.90;;;;;;4944789;29;20215;-89
2023/01/30 08:05:12;;;;;;;20.38;14.15;;;1.20;99.90;;;;;;4951579;29;20207;-88
2023/01/30 08:07:46;;;;;;;19.23;13.05;;;1.30;99.90;;;;;;4952166;29;20235;-87
2023/01/30 08:10:13;;;;;;;16.15;12.60;;;1.10;99.90;;;;;;4956675;28;20190;-90
2023/01/30 08:12:41;;;;;;;19.60;14.82;;;1.40;99.90;;;;;;4971480;28;20203;-89
2023/01/30 08:15:09;;;;;;;20.38;13.13;;;1.20;99.90;;;;;;4961942;28;20187;-90
2023/01/30 08:17:38;;;;;;;19.38;13.50;;;1.30;99.90;;;;;;4957927;28;20211;-89
2023/01/30 08:20:05;;;;;;;19.02;13.93;;;1.40;99.90;;;;;;4959639;28;20196;-86
2023/01/30 08:22:32;;;;;;;19.98;13.35;;;1.50;99.90;;;;;;4959580;28;20263;-89
2023/01/30 08:25:02;;;;;;;18.48;14.60;;;1.50;99.90;;;;;;4966235;28;20187;-89
2023/01/30 08:27:29;;;;;;;17.23;11.23;;;1.50;99.90;;;;;;4963414;28;20203;-92
2023/01/30 08:29:56;;;;;;;19.70;12.50;;;1.60;99.90;;;;;;4959870;28;20220;-90
2023/01/30 08:32:23;;;;;;;13.95;11.10;;;1.70;99.90;;;;;;4953378;28;20203;-90
2023/01/30 08:34:51;;;;;;;26.05;15.18;;;1.60;99.90;;;;;;4959371;28;20220;-91
2023/01/30 08:37:17;;;;;;;18.67;13.05;;;1.60;99.90;;;;;;4951818;28;20215;-91
2023/01/30 08:39:45;;;;;;;20.42;11.80;;;1.80;99.90;;;;;;4958580;28;20184;-89
2023/01/30 08:47:31;;;;;;;16.10;11.45;;;1.90;99.90;;;;;;4960613;28;20231;-89
2023/01/30 08:49:59;;;;;;;17.00;12.95;;;1.90;99.90;;;;;;4965854;28;20246;-91
2023/01/30 08:52:26;;;;;;;20.25;12.38;;;2.10;99.90;;;;;;4961383;28;20227;-87
2023/01/30 08:54:54;;;;;;;16.65;12.43;;;2.00;99.90;;;;;;4951745;29;20519;-86
2023/01/30 08:57:22;;;;;;;15.98;11.13;;;2.00;99.90;;;;;;4965135;29;20492;-87
2023/01/30 08:59:50;;;;;;;20.50;12.43;;;2.00;99.90;;;;;;4947004;29;20216;-89
2023/01/30 09:02:18;;;;;;;15.80;12.13;;;2.00;99.90;;;;;;4950098;29;20234;-86
2023/01/30 09:04:45;;;;;;;15.90;11.10;;;2.20;99.90;;;;;;4948259;29;20251;-87
2023/01/30 09:07:15;;;;;;;15.13;10.60;;;2.30;99.90;;;;;;4963974;29;20228;-88
2023/01/30 09:09:42;;;;;;;16.60;12.02;;;2.20;99.90;;;;;;4953775;29;20497;-86
2023/01/30 09:12:09;;;;;;;15.32;12.07;;;2.30;99.90;;;;;;4954655;29;20562;-89
2023/01/30 09:14:37;;;;;;;15.02;10.85;;;2.30;99.90;;;;;;4960122;29;20243;-86
2023/01/30 09:17:04;;;;;;;19.27;11.45;;;2.20;99.90;;;;;;4946532;29;20271;-89
2023/01/30 09:19:31;;;;;;;12.82;10.10;;;2.10;99.90;;;;;;4959196;29;20239;-89
2023/01/30 09:21:58;;;;;;;18.27;9.73;;;2.10;99.90;;;;;;4949625;29;20209;-87
2023/01/30 09:24:26;;;;;;;12.38;9.73;;;2.00;99.90;;;;;;4949726;29;20401;-90
2023/01/30 09:26:58;;;;;;;16.20;10.60;;;2.20;99.90;;;;;;4947893;29;20303;-88
2023/01/30 09:29:27;;;;;;;11.43;9.15;;;2.30;99.90;;;;;;4966772;28;20217;-88
2023/01/30 09:31:56;;;;;;;11.95;8.88;;;2.40;99.90;;;;;;4978708;28;20234;-89
2023/01/30 09:34:27;;;;;;;11.23;8.70;;;2.40;99.90;;;;;;4964933;29;20276;-88
2023/01/30 09:36:59;;;;;;;10.40;8.43;;;2.40;99.90;;;;;;4966599;29;20216;-88
2023/01/30 09:39:30;;;;;;;11.95;8.55;;;2.40;99.90;;;;;;4969009;29;20223;-88
2023/01/30 09:42:03;;;;;;;12.10;9.40;;;2.40;99.90;;;;;;4958416;28;20224;-88
2023/01/30 09:44:52;;;;;;;17.30;9.73;;;2.40;99.90;;;;;;4968114;28;20221;-88
2023/01/30 09:50:53;;;;;;;14.15;9.93;;;2.30;99.90;;;;;;4926547;29;20204;-86
2023/01/30 09:53:37;;;;;;;11.77;10.48;;;2.50;99.90;;;;;;4927314;29;20213;-89
2023/01/30 09:56:05;;;;;;;13.35;9.43;;;2.30;99.90;;;;;;4918745;29;20194;-86
2023/01/30 09:58:43;;;;;;;12.15;8.60;;;2.30;99.90;;;;;;4925708;29;20211;-86
2023/01/30 10:01:42;;;;;;;14.65;10.88;;;2.20;99.90;;;;;;4913839;29;20258;-85
2023/01/30 10:04:51;;;;;;;13.40;10.65;;;2.20;99.90;;;;;;4854264;29;20201;-85
2023/01/30 10:07:45;;;;;;;14.35;10.77;;;2.30;99.90;;;;;;4852887;29;20265;-87
2023/01/30 10:10:13;;;;;;;12.40;8.82;;;2.20;99.90;;;;;;4896386;29;20206;-85
2023/01/30 10:13:13;;;;;;;14.25;9.65;;;2.20;99.90;;;;;;4927373;29;20239;-85
2023/01/30 10:16:18;;;;;;;12.38;11.13;;;2.00;99.90;;;;;;4936363;29;20262;-85
2023/01/30 10:19:09;;;;;;;14.82;9.45;;;1.90;99.90;;;;;;5086437;23;20251;-87
2023/01/30 10:21:39;;;;;;;15.85;9.63;;;1.70;99.90;;;;;;4971450;29;20207;-88
2023/01/30 10:24:13;;;;;;;15.68;11.20;;;1.70;99.90;;;;;;4972584;29;20204;-89
2023/01/30 10:26:42;;;;;;;20.20;9.88;;;1.70;99.90;;;;;;4974261;28;20235;-88
2023/01/30 10:29:35;;;;;;;13.75;10.00;;;1.70;99.90;;;;;;4956770;28;20195;-87
2023/01/30 10:32:17;;;;;;;15.70;11.13;;;1.70;99.90;;;;;;4973632;28;20211;-88
2023/01/30 10:34:49;;;;;;;18.33;11.93;;;1.80;99.90;;;;;;4975636;29;20266;-88
2023/01/30 10:37:49;;;;;;;21.23;12.80;;;1.80;99.90;;;;;;4977993;28;20224;-89
2023/01/30 11:31:39;;;;;;;15.07;9.85;;;2.70;99.90;;;;;;5245297;23;20241;-90
2023/01/30 11:34:15;;;;;;;12.98;9.00;;;2.70;99.90;;;;;;4976244;28;20189;-88
2023/01/30 11:36:42;;;;;;;11.88;8.55;;;2.80;99.90;;;;;;4976447;28;20192;-92
2023/01/30 11:39:22;;;;;;;11.23;8.38;;;2.80;99.90;;;;;;4981136;28;20228;-92
2023/01/30 11:42:00;;;;;;;12.38;8.18;;;2.90;99.90;;;;;;4973532;28;20189;-92
2023/01/30 11:44:33;;;;;;;11.10;8.40;;;3.00;99.90;;;;;;4977002;28;20245;-93
2023/01/30 11:47:07;;;;;;;9.43;7.45;;;3.00;99.90;;;;;;5007781;23;20254;-91
2023/01/30 11:49:42;;;;;;;10.88;7.95;;;3.10;99.90;;;;;;5084240;23;20605;-90
2023/01/30 11:52:35;;;;;;;12.27;8.52;;;3.10;99.90;;;;;;5116551;23;20230;-89
2023/01/30 12:11:43;;;;;;;9.07;7.38;;;3.30;99.90;;;;;;4956263;28;20224;-91
2023/01/30 12:14:42;;;;;;;10.82;7.88;;;3.30;99.90;;;;;;4966216;28;20246;-91
2023/01/30 12:17:54;;;;;;;7.82;5.05;;;3.20;99.90;;;;;;5090703;23;20238;-91
2023/01/30 12:20:48;;;;;;;7.93;5.10;;;3.20;99.90;;;;;;4989551;28;20212;-90
2023/01/30 12:23:33;;;;;;;6.43;4.75;;;3.40;99.90;;;;;;4987075;28;20273;-89
2023/01/30 12:26:39;;;;;;;4.90;3.47;;;3.40;99.90;;;;;;4987484;28;20206;-89
2023/01/30 12:29:57;;;;;;;3.30;2.75;;;3.50;99.90;;;;;;4965237;28;20205;-87
2023/01/30 12:32:27;;;;;;;5.95;3.60;;;3.50;99.90;;;;;;4961703;29;20210;-87
2023/01/30 12:34:55;;;;;;;3.95;3.40;;;3.60;99.90;;;;;;4967996;28;20193;-88
2023/01/30 12:37:52;;;;;;;6.20;3.63;;;3.60;99.90;;;;;;4964037;29;20265;-89
2023/01/30 12:41:00;;;;;;;5.03;3.47;;;3.50;99.90;;;;;;4983711;28;20189;-88
2023/01/30 12:43:38;;;;;;;5.78;3.60;;;3.60;99.90;;;;;;4986478;28;20212;-87
2023/01/30 12:46:13;;;;;;;4.35;3.55;;;3.60;99.90;;;;;;4978097;28;20205;-87
2023/01/30 12:48:52;;;;;;;4.70;3.30;;;3.70;99.90;;;;;;4977838;28;20209;-87
2023/01/30 12:52:01;;;;;;;5.05;3.85;;;3.60;99.90;;;;;;4980892;28;20198;-88
2023/01/30 12:54:37;;;;;;;3.63;2.55;;;3.80;99.90;;;;;;4973730;28;20201;-87
2023/01/30 12:57:38;;;;;;;4.03;2.95;;;3.90;99.90;;;;;;4969031;28;20198;-87
2023/01/30 13:00:42;;;;;;;5.22;3.35;;;4.00;99.90;;;;;;4983349;28;20241;-86
2023/01/30 13:03:28;;;;;;;4.63;3.78;;;4.00;99.90;;;;;;4969900;28;20220;-86
2023/01/30 13:06:08;;;;;;;4.45;2.95;;;4.20;99.90;;;;;;4955520;29;20218;-87
2023/01/30 13:09:00;;;;;;;5.38;3.00;;;4.20;99.90;;;;;;4969845;29;20223;-85
2023/01/30 13:12:05;;;;;;;3.70;3.13;;;4.00;99.90;;;;;;4963331;29;20739;-86
2023/01/30 13:14:49;;;;;;;4.40;3.35;;;4.20;99.90;;;;;;4945556;29;20211;-85
2023/01/30 13:17:46;;;;;;;3.13;2.83;;;4.30;99.90;;;;;;4962553;29;20273;-85
2023/01/30 13:20:39;;;;;;;8.02;3.28;;;4.40;99.90;;;;;;4963164;28;20233;-85
2023/01/30 13:23:32;;;;;;;5.00;3.30;;;4.30;99.90;;;;;;4970715;28;20358;-87
2023/01/30 13:26:13;;;;;;;3.72;3.00;;;4.30;99.90;;;;;;4980485;28;20206;-87
2023/01/30 13:28:58;;;;;;;3.30;2.22;;;4.20;99.90;;;;;;4971851;28;20225;-85
2023/01/30 13:31:30;;;;;;;3.30;2.80;;;4.20;99.90;;;;;;4971451;28;20215;-86
2023/01/30 13:34:27;;;;;;;3.78;2.42;;;4.20;99.90;;;;;;4968202;28;20194;-86
2023/01/30 13:37:05;;;;;;;2.42;2.22;;;4.10;99.90;;;;;;4974279;28;20276;-88
2023/01/30 13:39:45;;;;;;;4.60;3.13;;;4.10;99.90;;;;;;4966786;28;20221;-87
2023/01/30 13:42:44;;;;;;;2.90;2.55;;;4.20;99.90;;;;;;4969933;28;20199;-87
2023/01/30 13:45:33;;;;;;;5.13;3.13;;;4.30;99.90;;;;;;4961621;28;20205;-87
2023/01/30 13:48:27;;;;;;;3.38;2.60;;;4.40;99.90;;;;;;4966578;28;20522;-85
2023/01/30 13:51:22;;;;;;;3.45;2.40;;;4.70;99.90;;;;;;4976053;28;20247;-85
2023/01/30 13:54:05;;;;;;;3.85;2.97;;;4.80;99.90;;;;;;4962720;29;20216;-87
2023/01/30 13:56:40;;;;;;;6.60;3.00;;;4.70;99.90;;;;;;4973349;28;20530;-85
2023/01/30 13:59:22;;;;;;;6.57;4.28;;;4.50;99.90;;;;;;4966350;28;20272;-87
2023/01/30 14:02:08;;;;;;;3.55;2.65;;;4.70;99.90;;;;;;4967131;28;20218;-85
2023/01/30 14:04:35;;;;;;;2.83;2.53;;;4.90;99.90;;;;;;4982636;28;20438;-85
2023/01/30 14:07:11;;;;;;;5.90;3.75;;;4.90;99.90;;;;;;4954709;28;20230;-85
2023/01/30 14:10:04;;;;;;;9.45;3.20;;;5.00;99.90;;;;;;4972697;28;20206;-85
2023/01/30 14:12:52;;;;;;;4.90;2.70;;;5.00;99.90;;;;;;4965446;28;20225;-84
2023/01/30 14:15:27;;;;;;;4.93;3.45;;;5.00;99.90;;;;;;4969621;28;20257;-83
2023/01/30 14:18:06;;;;;;;5.38;2.67;;;5.10;99.90;;;;;;4967902;28;20312;-87
2023/01/30 14:20:36;;;;;;;5.55;2.30;;;5.20;99.90;;;;;;4968350;28;20249;-85
2023/01/30 14:23:21;;;;;;;7.30;2.67;;;5.10;99.90;;;;;;4966633;28;20207;-89
2023/01/30 14:25:51;;;;;;;5.05;3.22;;;5.20;99.90;;;;;;4968266;28;20210;-85
2023/01/30 14:28:22;;;;;;;5.15;2.88;;;5.20;99.90;;;;;;4964177;28;20250;-87
2023/01/30 14:30:51;;;;;;;9.52;3.67;;;5.20;99.90;;;;;;4973027;28;20206;-83
2023/01/30 14:33:18;;;;;;;4.72;4.32;;;5.10;99.90;;;;;;4972621;28;20265;-85
2023/01/30 14:35:52;;;;;;;3.47;3.00;;;5.10;99.90;;;;;;4969635;28;20203;-84
2023/01/30 14:38:20;;;;;;;3.80;2.35;;;5.10;99.90;;;;;;4971570;28;20206;-85
2023/01/30 14:41:01;;;;;;;5.45;2.65;;;5.10;99.90;;;;;;4976607;28;20632;-86
2023/01/30 14:43:41;;;;;;;4.28;2.50;;;5.10;99.90;;;;;;4955858;28;20203;-87